Time;durP1;ratioP1;P1;durP2;ratioP2;P2;SDS_P1;SDS_P2;PMS_P1;PMS_P2;Temp;Humidity;BMP_temperature;BMP_pressure;BME280_temperature;BME280_humidity;BME280_pressure;Samples;Min_cycle;Max_cycle;Signal;HPM_P1;HPM_P2
2020/12/06 00:01:56;;;;;;;5.82;1.52;;;25.50;39.10;;;;;;4171954;28;20428;-61
2020/12/06 00:03:59;;;;;;;7.13;2.47;;;25.50;39.80;;;;;;4170783;28;20309;-61
2020/12/06 00:06:01;;;;;;;6.97;2.10;;;25.50;39.50;;;;;;4176020;28;20045;-61
2020/12/06 00:08:03;;;;;;;9.85;2.10;;;25.50;38.90;;;;;;4170510;28;20180;-61
2020/12/06 00:10:10;;;;;;;8.20;2.25;;;25.50;39.20;;;;;;4172135;28;20040;-61
2020/12/06 00:12:12;;;;;;;7.68;2.30;;;25.50;39.20;;;;;;4160206;28;20033;-62
2020/12/06 00:14:14;;;;;;;7.93;2.00;;;25.50;39.10;;;;;;4180363;28;20036;-61
2020/12/06 00:16:18;;;;;;;8.25;2.15;;;25.50;39.90;;;;;;4168796;28;20090;-61
2020/12/06 00:18:20;;;;;;;6.43;2.20;;;25.60;39.40;;;;;;4169031;28;20032;-60
2020/12/06 00:20:23;;;;;;;6.45;2.00;;;25.60;39.30;;;;;;4171048;28;20112;-61
2020/12/06 00:22:27;;;;;;;;;;;25.60;39.20;;;;;;4168700;28;20105;-59
2020/12/06 00:24:29;;;;;;;6.95;1.85;;;25.70;39.20;;;;;;4174278;28;19912;-60
2020/12/06 00:26:32;;;;;;;9.25;2.63;;;25.60;39.40;;;;;;4168231;28;20382;-60
2020/12/06 00:28:37;;;;;;;9.68;2.25;;;25.60;39.30;;;;;;4159475;28;20425;-61
2020/12/06 00:30:39;;;;;;;8.65;2.22;;;25.70;39.00;;;;;;4171461;28;20566;-59
2020/12/06 00:32:41;;;;;;;8.25;2.20;;;25.70;39.40;;;;;;4166972;28;20275;-59
2020/12/06 00:34:44;;;;;;;5.00;1.83;;;25.70;39.10;;;;;;4164721;28;20072;-60
2020/12/06 00:36:49;;;;;;;5.00;2.05;;;25.70;38.80;;;;;;4170089;28;20048;-59
2020/12/06 00:39:00;;;;;;;6.25;2.17;;;25.70;38.60;;;;;;4170173;28;20730;-61
2020/12/06 00:41:02;;;;;;;8.20;2.58;;;25.70;38.40;;;;;;4167757;28;20040;-60
2020/12/06 00:43:05;;;;;;;8.68;2.22;;;25.80;38.70;;;;;;4172808;28;20052;-59
2020/12/06 00:45:07;;;;;;;9.68;2.30;;;25.80;38.80;;;;;;4172341;28;20457;-60
2020/12/06 00:47:09;;;;;;;7.67;2.27;;;25.80;38.50;;;;;;4176707;28;20293;-60
2020/12/06 00:49:11;;;;;;;7.30;2.00;;;25.80;37.60;;;;;;4172178;28;20040;-60
2020/12/06 00:51:13;;;;;;;8.68;2.30;;;25.90;37.50;;;;;;4170482;28;20071;-59
2020/12/06 00:53:16;;;;;;;7.32;2.10;;;25.90;37.00;;;;;;4168195;28;20029;-60
2020/12/06 00:55:18;;;;;;;4.65;1.88;;;25.80;36.60;;;;;;4175588;28;20469;-59
2020/12/06 00:57:24;;;;;;;10.05;2.28;;;25.90;36.40;;;;;;4168586;28;20045;-59
2020/12/06 00:59:27;;;;;;;9.57;2.20;;;25.90;36.70;;;;;;4171075;28;20029;-58
2020/12/06 01:01:29;;;;;;;8.85;2.40;;;25.90;36.90;;;;;;4169153;28;20052;-58
2020/12/06 01:03:31;;;;;;;8.77;2.00;;;25.90;36.70;;;;;;4166720;28;20410;-60
2020/12/06 01:05:33;;;;;;;7.25;2.20;;;25.90;37.00;;;;;;4171078;28;20588;-58
2020/12/06 01:07:43;;;;;;;9.00;2.28;;;26.00;36.80;;;;;;4138482;28;20529;-60
2020/12/06 01:09:45;;;;;;;8.63;2.58;;;26.00;36.80;;;;;;4176197;28;20033;-60
2020/12/06 01:11:50;;;;;;;14.48;2.60;;;26.00;35.50;;;;;;4164712;28;20045;-59
2020/12/06 01:13:52;;;;;;;7.57;2.05;;;26.00;35.40;;;;;;4171231;28;20052;-60
2020/12/06 01:15:54;;;;;;;8.52;2.15;;;26.00;35.60;;;;;;4164509;28;20037;-61
2020/12/06 01:17:57;;;;;;;7.53;2.20;;;26.00;34.70;;;;;;4165964;28;20471;-60
2020/12/06 01:19:59;;;;;;;7.72;2.50;;;26.00;34.20;;;;;;4167776;28;20040;-60
2020/12/06 01:22:01;;;;;;;5.82;2.20;;;26.10;33.30;;;;;;4171125;28;20054;-60
2020/12/06 01:24:04;;;;;;;7.07;2.10;;;26.10;33.30;;;;;;4171434;28;21043;-60
2020/12/06 01:26:09;;;;;;;10.63;2.50;;;26.20;33.00;;;;;;4173348;28;20036;-59
2020/12/06 01:28:11;;;;;;;6.20;2.40;;;26.20;33.20;;;;;;4172669;28;20029;-61
2020/12/06 01:30:13;;;;;;;8.00;2.05;;;26.10;33.10;;;;;;4172217;28;20048;-60
2020/12/06 01:32:15;;;;;;;7.93;2.17;;;26.20;34.10;;;;;;4174509;28;20354;-60
2020/12/06 01:34:18;;;;;;;8.40;2.50;;;26.20;33.50;;;;;;4169690;28;20168;-59
2020/12/06 01:36:20;;;;;;;14.18;2.50;;;26.20;34.10;;;;;;4180448;28;20235;-59
2020/12/06 01:38:22;;;;;;;12.23;2.88;;;26.20;34.70;;;;;;4173690;28;20029;-60
2020/12/06 01:40:24;;;;;;;7.28;2.03;;;26.30;35.70;;;;;;4177149;28;20118;-61
2020/12/06 01:42:28;;;;;;;9.27;2.28;;;26.30;34.60;;;;;;4173208;28;20048;-58
2020/12/06 01:44:30;;;;;;;7.75;2.67;;;26.40;35.30;;;;;;4170055;28;20110;-60
2020/12/06 01:46:35;;;;;;;9.30;2.63;;;26.40;35.30;;;;;;4154696;28;20454;-59
2020/12/06 01:48:37;;;;;;;6.13;2.08;;;26.40;35.80;;;;;;4174823;28;20139;-57
2020/12/06 01:50:43;;;;;;;9.05;2.53;;;26.50;35.90;;;;;;4171900;28;20029;-58
2020/12/06 01:52:47;;;;;;;8.40;2.00;;;26.50;34.40;;;;;;4172295;28;20037;-58
2020/12/06 01:54:53;;;;;;;9.73;2.05;;;26.60;33.60;;;;;;4170581;28;20128;-60
2020/12/06 01:56:55;;;;;;;4.38;1.65;;;26.60;32.70;;;;;;4173883;28;20025;-59
2020/12/06 01:58:57;;;;;;;8.97;2.50;;;26.60;32.70;;;;;;4169218;28;20029;-60
2020/12/06 02:01:00;;;;;;;7.53;2.20;;;26.60;32.60;;;;;;4167207;28;20351;-60
2020/12/06 02:03:05;;;;;;;6.40;1.73;;;26.60;33.80;;;;;;4166452;28;20305;-60
2020/12/06 02:05:10;;;;;;;8.13;2.05;;;26.60;33.50;;;;;;4168357;28;20032;-60
2020/12/06 02:07:12;;;;;;;8.75;2.33;;;26.70;34.00;;;;;;4168749;28;20537;-59
2020/12/06 02:09:15;;;;;;;8.23;2.07;;;26.70;34.00;;;;;;4166912;28;20071;-59
2020/12/06 02:11:33;;;;;;;6.30;2.08;;;26.70;34.50;;;;;;4173729;28;20866;-59
2020/12/06 02:13:36;;;;;;;10.70;2.47;;;26.70;33.50;;;;;;4172007;28;20051;-60
2020/12/06 02:15:44;;;;;;;11.75;2.30;;;26.70;32.50;;;;;;4168214;28;20129;-59
2020/12/06 02:17:49;;;;;;;9.13;2.05;;;26.80;32.80;;;;;;4170718;28;20059;-60
2020/12/06 02:19:55;;;;;;;10.55;2.25;;;26.80;33.20;;;;;;4173417;28;20084;-59
2020/12/06 02:22:00;;;;;;;7.88;2.42;;;26.80;32.70;;;;;;4180185;28;20080;-59
2020/12/06 02:24:10;;;;;;;10.50;1.90;;;26.90;32.80;;;;;;4163193;28;20025;-59
2020/12/06 02:26:13;;;;;;;9.00;2.03;;;26.90;33.10;;;;;;4174418;28;20029;-60
2020/12/06 02:28:15;;;;;;;5.90;1.80;;;26.90;33.20;;;;;;4176061;28;20041;-60
2020/12/06 02:30:17;;;;;;;6.82;1.80;;;26.90;32.50;;;;;;4181465;28;20033;-59
2020/12/06 02:32:19;;;;;;;9.00;2.35;;;27.00;32.20;;;;;;4173663;28;20037;-60
2020/12/06 02:34:21;;;;;;;12.52;2.13;;;27.00;31.80;;;;;;4170702;28;20044;-59
2020/12/06 02:36:23;;;;;;;9.35;1.83;;;27.00;32.30;;;;;;4131112;28;20399;-60
2020/12/06 02:38:28;;;;;;;9.77;2.08;;;27.10;31.70;;;;;;4164645;28;20030;-59
2020/12/06 02:40:31;;;;;;;6.45;1.73;;;27.10;31.20;;;;;;4173688;28;20097;-60
2020/12/06 02:42:38;;;;;;;7.22;2.25;;;27.10;31.80;;;;;;4168627;28;20053;-60
2020/12/06 02:44:45;;;;;;;5.68;2.13;;;27.10;31.80;;;;;;4171578;28;21262;-59
2020/12/06 02:46:49;;;;;;;7.60;2.28;;;27.10;31.40;;;;;;4164653;28;20161;-58
2020/12/06 02:48:51;;;;;;;7.35;2.38;;;27.10;31.80;;;;;;4170585;28;20483;-59
2020/12/06 02:50:53;;;;;;;9.32;2.42;;;27.20;31.80;;;;;;4166005;28;20119;-59
2020/12/06 02:52:57;;;;;;;10.40;2.25;;;27.20;31.90;;;;;;4169554;28;20029;-60
2020/12/06 02:54:59;;;;;;;6.22;2.33;;;27.30;32.10;;;;;;4168999;28;20041;-59
2020/12/06 02:57:03;;;;;;;6.10;2.00;;;27.30;31.10;;;;;;4160910;28;20029;-60
2020/12/06 02:59:06;;;;;;;9.02;2.00;;;27.30;31.60;;;;;;4170922;28;20132;-60
2020/12/06 03:01:13;;;;;;;6.97;2.22;;;27.40;31.50;;;;;;4167859;28;20077;-59
2020/12/06 03:03:15;;;;;;;10.77;2.40;;;27.30;31.60;;;;;;4168642;28;20047;-57
2020/12/06 03:05:17;;;;;;;7.88;1.98;;;27.30;32.30;;;;;;4171971;28;20021;-59
2020/12/06 03:07:19;;;;;;;4.25;1.85;;;27.40;31.90;;;;;;4166731;28;20087;-60
2020/12/06 03:09:22;;;;;;;11.50;2.15;;;27.40;31.40;;;;;;4169407;28;20048;-58
2020/12/06 03:11:25;;;;;;;8.93;2.23;;;27.40;31.50;;;;;;4170044;28;20033;-59
2020/12/06 03:13:27;;;;;;;7.25;2.20;;;27.50;31.30;;;;;;4169324;28;20394;-59
2020/12/06 03:15:29;;;;;;;11.55;2.40;;;27.50;32.10;;;;;;4174511;28;20212;-59
2020/12/06 03:17:34;;;;;;;5.13;1.67;;;27.60;31.90;;;;;;4170808;28;20029;-58
2020/12/06 03:19:36;;;;;;;7.85;2.30;;;27.60;32.30;;;;;;4170919;28;20406;-58
2020/12/06 03:21:38;;;;;;;6.53;2.10;;;27.60;32.10;;;;;;4168875;28;20044;-58
2020/12/06 03:23:42;;;;;;;8.60;2.40;;;27.60;32.10;;;;;;4170008;28;20359;-62
2020/12/06 03:25:44;;;;;;;6.05;1.85;;;27.70;31.50;;;;;;4154943;23;20592;-59
2020/12/06 03:27:46;;;;;;;7.57;2.00;;;27.70;30.60;;;;;;4120551;28;20521;-58
2020/12/06 03:29:48;;;;;;;7.35;1.90;;;27.70;30.10;;;;;;4107307;28;20037;-60
2020/12/06 03:31:50;;;;;;;6.72;1.90;;;27.80;30.50;;;;;;4119276;28;20544;-59
2020/12/06 03:33:52;;;;;;;7.78;2.33;;;27.80;30.50;;;;;;4121076;28;20041;-59
2020/12/06 03:35:55;;;;;;;6.28;2.10;;;27.80;30.50;;;;;;4121207;28;20379;-58
2020/12/06 03:37:57;;;;;;;5.72;2.25;;;27.80;30.90;;;;;;4119117;28;20487;-60
2020/12/06 03:39:59;;;;;;;3.73;1.77;;;27.80;30.00;;;;;;4119869;28;20049;-59
2020/12/06 03:42:01;;;;;;;6.70;1.77;;;27.80;30.70;;;;;;4138004;28;20598;-60
2020/12/06 03:44:03;;;;;;;8.50;1.77;;;27.90;30.20;;;;;;4120456;28;20037;-60
2020/12/06 03:46:07;;;;;;;11.05;2.78;;;27.90;30.20;;;;;;4111211;28;20026;-59
2020/12/06 03:48:09;;;;;;;6.82;1.75;;;28.00;30.00;;;;;;4137514;28;20037;-60
2020/12/06 03:50:14;;;;;;;7.57;2.03;;;28.00;29.80;;;;;;4124230;28;20108;-59
2020/12/06 03:52:16;;;;;;;9.77;2.10;;;28.10;29.40;;;;;;4121487;28;20132;-59
2020/12/06 03:54:18;;;;;;;8.57;2.17;;;28.10;29.10;;;;;;4120528;28;20490;-58
2020/12/06 03:56:21;;;;;;;6.72;2.08;;;28.10;29.10;;;;;;4128764;28;20674;-58
2020/12/06 03:58:23;;;;;;;8.43;2.20;;;28.10;29.20;;;;;;4118052;28;20048;-58
2020/12/06 04:00:28;;;;;;;5.35;1.95;;;28.20;29.50;;;;;;4121603;28;20123;-59
2020/12/06 04:02:30;;;;;;;6.45;2.22;;;28.30;29.80;;;;;;4123892;28;20122;-59
2020/12/06 04:04:33;;;;;;;5.72;2.13;;;28.30;29.80;;;;;;4120879;28;20124;-58
2020/12/06 04:06:35;;;;;;;5.83;1.50;;;28.30;28.90;;;;;;4118178;28;20038;-55
2020/12/06 04:08:37;;;;;;;6.32;2.10;;;28.40;28.40;;;;;;4118886;28;20785;-60
2020/12/06 04:10:39;;;;;;;5.82;1.70;;;28.40;28.80;;;;;;4125200;28;20496;-59
2020/12/06 04:12:41;;;;;;;3.90;1.60;;;28.40;28.30;;;;;;4112794;28;20046;-58
2020/12/06 04:14:43;;;;;;;4.40;1.73;;;28.50;29.20;;;;;;4102283;28;20413;-59
2020/12/06 04:16:45;;;;;;;8.95;2.25;;;28.50;29.40;;;;;;4084424;28;20043;-58
2020/12/06 04:18:47;;;;;;;3.50;1.55;;;28.60;28.60;;;;;;4094601;28;20047;-58
2020/12/06 04:20:49;;;;;;;6.30;1.85;;;28.70;28.50;;;;;;4099817;28;20037;-59
2020/12/06 04:22:54;;;;;;;5.38;1.48;;;28.70;28.50;;;;;;4096429;28;20035;-59
2020/12/06 04:24:56;;;;;;;5.13;1.67;;;28.70;27.60;;;;;;4089154;28;20071;-61
2020/12/06 04:27:01;;;;;;;5.07;1.70;;;28.80;27.70;;;;;;4080971;28;20151;-60
2020/12/06 04:29:04;;;;;;;4.32;1.40;;;28.80;27.10;;;;;;4100827;28;20625;-60
2020/12/06 04:31:06;;;;;;;5.20;1.75;;;28.90;28.00;;;;;;4106217;28;20077;-61
2020/12/06 04:33:08;;;;;;;5.20;1.57;;;28.90;27.60;;;;;;4101927;28;20070;-60
2020/12/06 04:35:10;;;;;;;6.80;1.67;;;28.90;27.30;;;;;;4103639;28;20269;-60
2020/12/06 04:37:15;;;;;;;6.05;1.55;;;29.00;27.20;;;;;;4092713;28;20101;-62
2020/12/06 04:39:20;;;;;;;7.85;1.88;;;29.00;27.50;;;;;;4101327;28;20057;-61
2020/12/06 04:41:29;;;;;;;7.65;2.10;;;29.10;27.40;;;;;;4102626;28;20022;-61
2020/12/06 04:43:32;;;;;;;4.15;1.75;;;29.10;27.20;;;;;;4102184;28;20520;-60
2020/12/06 04:45:35;;;;;;;8.15;1.70;;;29.10;27.30;;;;;;4095293;28;20040;-60
2020/12/06 04:47:54;;;;;;;6.53;1.98;;;29.10;27.90;;;;;;4096439;28;20774;-61
2020/12/06 04:50:09;;;;;;;14.70;2.00;;;29.10;28.20;;;;;;4096982;28;20175;-59
2020/12/06 04:52:19;;;;;;;5.38;1.67;;;29.20;27.40;;;;;;4099532;28;20039;-61
2020/12/06 04:54:37;;;;;;;6.93;1.80;;;29.30;28.00;;;;;;4094189;28;20039;-60
2020/12/06 04:56:40;;;;;;;7.20;1.70;;;29.30;28.00;;;;;;4088612;28;20542;-59
2020/12/06 04:58:46;;;;;;;6.20;1.65;;;29.30;27.80;;;;;;4086977;28;20486;-61
2020/12/06 05:01:02;;;;;;;6.03;1.90;;;29.40;27.50;;;;;;4092939;28;20120;-60
2020/12/06 05:03:10;;;;;;;5.57;1.58;;;29.40;26.80;;;;;;4102991;28;20508;-61
2020/12/06 05:05:14;;;;;;;6.05;1.83;;;29.40;26.80;;;;;;4089391;28;20031;-61
2020/12/06 05:07:18;;;;;;;5.90;1.80;;;29.40;26.20;;;;;;4094279;28;20035;-60
2020/12/06 05:09:22;;;;;;;6.00;1.98;;;29.50;26.00;;;;;;4092598;28;20057;-60
2020/12/06 05:11:25;;;;;;;4.25;1.70;;;29.50;26.10;;;;;;4108309;28;20499;-59
2020/12/06 05:13:28;;;;;;;4.53;1.60;;;29.50;26.60;;;;;;4103340;28;20042;-59
2020/12/06 05:15:48;;;;;;;8.85;1.75;;;29.60;27.00;;;;;;4099386;28;20085;-62
2020/12/06 05:17:51;;;;;;;6.78;1.70;;;29.60;26.90;;;;;;4103668;28;20023;-61
2020/12/06 05:19:53;;;;;;;8.00;2.00;;;29.70;26.10;;;;;;4106397;28;20512;-62
2020/12/06 05:21:55;;;;;;;7.57;1.90;;;29.70;26.00;;;;;;4104375;28;20026;-60
2020/12/06 05:23:57;;;;;;;5.13;1.58;;;29.80;25.70;;;;;;4100838;28;20038;-61
2020/12/06 05:26:00;;;;;;;3.97;1.75;;;29.80;26.10;;;;;;4103606;28;20621;-57
2020/12/06 05:28:03;;;;;;;5.22;1.55;;;29.90;26.10;;;;;;4106999;28;20066;-59
2020/12/06 05:30:05;;;;;;;5.40;1.52;;;29.90;26.10;;;;;;4096635;28;20069;-60
2020/12/06 05:32:09;;;;;;;3.75;1.60;;;30.00;26.20;;;;;;4095417;28;20516;-60
2020/12/06 05:34:11;;;;;;;6.28;1.98;;;30.00;26.40;;;;;;4102074;28;20065;-59
2020/12/06 05:36:13;;;;;;;3.03;1.67;;;30.00;26.40;;;;;;4101655;28;20105;-60
2020/12/06 05:38:15;;;;;;;8.60;1.90;;;30.10;26.00;;;;;;4108506;28;20050;-60
2020/12/06 05:40:17;;;;;;;6.07;2.00;;;30.10;26.00;;;;;;4099603;28;20284;-59
2020/12/06 05:42:20;;;;;;;7.85;1.83;;;30.10;25.70;;;;;;4105210;28;20413;-60
2020/12/06 05:44:22;;;;;;;5.87;1.80;;;30.10;25.60;;;;;;4101407;28;20034;-60
2020/12/06 05:46:24;;;;;;;4.68;1.63;;;30.20;25.70;;;;;;4107790;28;20300;-60
2020/12/06 05:48:26;;;;;;;6.57;1.70;;;30.20;25.40;;;;;;4098869;28;20047;-60
2020/12/06 05:50:29;;;;;;;3.55;1.60;;;30.20;25.50;;;;;;4113387;28;20030;-59
2020/12/06 05:52:33;;;;;;;6.05;2.20;;;30.30;25.70;;;;;;4097608;28;20054;-58
2020/12/06 05:54:36;;;;;;;4.53;1.50;;;30.30;25.20;;;;;;4101365;28;20555;-60
2020/12/06 05:56:43;;;;;;;6.38;2.00;;;30.30;25.30;;;;;;4105353;28;20042;-60
2020/12/06 05:58:47;;;;;;;5.05;1.70;;;30.30;25.20;;;;;;4104862;28;20052;-60
2020/12/06 06:00:50;;;;;;;7.47;1.77;;;30.30;25.20;;;;;;4105453;28;20113;-60
2020/12/06 06:02:58;;;;;;;5.95;1.65;;;30.40;25.10;;;;;;4107203;28;20530;-60
2020/12/06 06:05:04;;;;;;;7.15;1.70;;;30.40;25.10;;;;;;4103195;28;20573;-60
2020/12/06 06:07:15;;;;;;;5.10;1.80;;;30.40;25.10;;;;;;4103058;28;20059;-61
2020/12/06 06:09:19;;;;;;;5.18;1.70;;;30.40;25.30;;;;;;4109159;28;20186;-59
2020/12/06 06:11:32;;;;;;;4.80;2.08;;;30.40;25.60;;;;;;4105009;28;20035;-60
2020/12/06 06:13:43;;;;;;;5.40;1.60;;;30.50;25.10;;;;;;4097724;28;20066;-60
2020/12/06 06:15:52;;;;;;;6.50;1.52;;;30.50;25.30;;;;;;4088903;28;20288;-59
2020/12/06 06:17:59;;;;;;;5.07;1.58;;;30.60;25.10;;;;;;4071340;28;20031;-61
2020/12/06 06:20:01;;;;;;;4.32;1.40;;;30.60;24.90;;;;;;4118115;28;20102;-59
2020/12/06 06:22:04;;;;;;;5.80;1.77;;;30.60;24.80;;;;;;4108344;28;20187;-60
2020/12/06 06:24:26;;;;;;;5.00;1.65;;;30.60;24.80;;;;;;4103187;28;20110;-60
2020/12/06 06:26:34;;;;;;;3.63;1.50;;;30.70;24.60;;;;;;4089537;28;20059;-60
2020/12/06 06:28:38;;;;;;;5.93;2.10;;;30.60;24.50;;;;;;4088873;28;20065;-59
2020/12/06 06:30:42;;;;;;;4.40;1.70;;;30.70;24.70;;;;;;4096100;28;20057;-59
2020/12/06 06:32:46;;;;;;;4.78;1.70;;;30.70;24.30;;;;;;4106845;28;20037;-60
2020/12/06 06:34:49;;;;;;;4.80;1.70;;;30.70;24.70;;;;;;4104415;28;20100;-59
2020/12/06 06:36:52;;;;;;;;;;;30.70;24.70;;;;;;4092945;28;20153;-59
2020/12/06 06:38:54;;;;;;;6.68;1.77;;;30.70;24.50;;;;;;4111628;28;19995;-58
2020/12/06 06:40:57;;;;;;;4.25;1.60;;;30.70;24.60;;;;;;4112299;28;20333;-60
2020/12/06 06:43:03;;;;;;;4.50;1.40;;;30.70;24.40;;;;;;4106164;28;20045;-60
2020/12/06 06:45:15;;;;;;;5.13;1.63;;;30.70;24.60;;;;;;4096265;28;20071;-60
2020/12/06 06:47:18;;;;;;;4.38;1.63;;;30.70;24.50;;;;;;4113903;28;20038;-61
2020/12/06 06:49:20;;;;;;;7.43;2.00;;;30.70;24.70;;;;;;4107677;28;20038;-59
2020/12/06 06:51:24;;;;;;;4.82;1.85;;;30.70;24.70;;;;;;4110333;28;20097;-60
2020/12/06 06:53:27;;;;;;;5.80;1.70;;;30.70;24.80;;;;;;4109801;28;20145;-58
2020/12/06 06:55:51;;;;;;;4.78;1.63;;;30.70;24.70;;;;;;4104675;28;20037;-60
2020/12/06 06:57:57;;;;;;;5.57;1.52;;;30.70;25.00;;;;;;4101606;28;20042;-58
2020/12/06 07:00:04;;;;;;;4.38;1.50;;;30.70;25.00;;;;;;4125133;28;20034;-60
2020/12/06 07:02:07;;;;;;;7.90;1.95;;;30.70;24.80;;;;;;4103897;28;20632;-60
2020/12/06 07:04:19;;;;;;;5.78;1.67;;;30.60;24.90;;;;;;4105009;28;20046;-60
2020/12/06 07:06:51;;;;;;;5.78;1.63;;;30.50;24.70;;;;;;4098851;28;20476;-60
2020/12/06 07:08:53;;;;;;;4.70;1.60;;;30.50;24.70;;;;;;4091031;28;20513;-57
2020/12/06 07:10:55;;;;;;;3.87;1.53;;;30.60;25.10;;;;;;4087930;28;20393;-58
2020/12/06 07:12:59;;;;;;;3.72;1.30;;;30.60;24.80;;;;;;4087574;28;20337;-59
2020/12/06 07:15:02;;;;;;;5.07;1.65;;;30.60;24.90;;;;;;4088209;28;20353;-61
2020/12/06 07:17:04;;;;;;;4.43;1.45;;;30.50;24.50;;;;;;4100846;28;20034;-59
2020/12/06 07:19:06;;;;;;;3.55;1.48;;;30.50;24.50;;;;;;4101276;28;20524;-59
2020/12/06 07:21:08;;;;;;;13.68;1.63;;;30.40;24.50;;;;;;4104826;28;20050;-60
2020/12/06 07:23:13;;;;;;;4.93;1.70;;;30.40;24.70;;;;;;4098537;28;20439;-60
2020/12/06 07:25:17;;;;;;;5.53;1.55;;;30.40;24.60;;;;;;4088667;28;20496;-59
2020/12/06 07:27:19;;;;;;;5.20;1.30;;;30.40;24.60;;;;;;4084658;28;20079;-59
2020/12/06 07:29:22;;;;;;;4.60;1.63;;;30.30;24.50;;;;;;4085155;28;20506;-58
2020/12/06 07:31:25;;;;;;;3.85;1.40;;;30.30;24.50;;;;;;4100929;28;20837;-55
2020/12/06 07:33:28;;;;;;;3.95;1.35;;;30.30;24.60;;;;;;4102657;28;20038;-59
2020/12/06 07:35:30;;;;;;;4.47;1.50;;;30.30;24.70;;;;;;4101983;28;20039;-59
2020/12/06 07:37:32;;;;;;;5.57;1.67;;;30.20;24.60;;;;;;4101821;28;20077;-59
2020/12/06 07:39:44;;;;;;;6.30;1.90;;;30.20;25.00;;;;;;4102343;28;20400;-59
2020/12/06 07:41:50;;;;;;;5.50;1.70;;;30.10;24.90;;;;;;4101006;28;20062;-60
2020/12/06 07:43:56;;;;;;;4.47;1.73;;;30.10;24.80;;;;;;4100522;28;20031;-57
2020/12/06 07:46:10;;;;;;;6.45;1.75;;;30.00;24.80;;;;;;4104341;28;20038;-58
2020/12/06 07:48:23;;;;;;;3.17;1.40;;;30.00;25.00;;;;;;4097858;28;20053;-56
2020/12/06 07:50:25;;;;;;;6.60;1.73;;;29.90;25.10;;;;;;4109615;28;20039;-59
2020/12/06 07:52:33;;;;;;;4.20;1.57;;;29.90;25.30;;;;;;4083369;28;20134;-60
2020/12/06 07:54:35;;;;;;;4.70;2.00;;;29.90;25.10;;;;;;4092037;28;20037;-57
2020/12/06 07:56:40;;;;;;;6.18;1.67;;;29.80;25.10;;;;;;4105590;28;20030;-59
2020/12/06 07:58:47;;;;;;;4.53;1.67;;;29.80;25.30;;;;;;4102390;28;20082;-58
2020/12/06 08:00:49;;;;;;;5.88;1.90;;;29.70;25.30;;;;;;4098998;28;20120;-57
2020/12/06 08:02:59;;;;;;;5.85;1.80;;;29.80;25.50;;;;;;4101505;28;20046;-49
2020/12/06 08:05:02;;;;;;;7.28;1.80;;;29.70;25.50;;;;;;4099801;28;20023;-54
2020/12/06 08:07:16;;;;;;;5.13;1.80;;;29.70;25.70;;;;;;4091860;28;20047;-48
2020/12/06 08:09:23;;;;;;;6.72;2.00;;;29.70;25.80;;;;;;4100767;28;20266;-57
2020/12/06 08:11:32;;;;;;;7.18;1.80;;;29.60;25.60;;;;;;4103762;28;20046;-49
2020/12/06 08:13:35;;;;;;;5.78;1.95;;;29.50;25.70;;;;;;4099099;28;20041;-49
2020/12/06 08:15:37;;;;;;;6.93;1.80;;;29.50;25.70;;;;;;4101328;28;20528;-49
2020/12/06 08:17:49;;;;;;;4.27;1.27;;;29.40;25.70;;;;;;4100025;28;20459;-51
2020/12/06 08:19:52;;;;;;;6.17;1.83;;;29.40;25.70;;;;;;4099059;28;20050;-46
2020/12/06 08:22:02;;;;;;;6.43;2.05;;;29.30;25.70;;;;;;4102010;28;20276;-52
2020/12/06 08:24:16;;;;;;;4.70;1.70;;;29.30;26.00;;;;;;4102266;28;20043;-46
2020/12/06 08:26:18;;;;;;;6.72;1.98;;;29.30;26.10;;;;;;4100669;28;20063;-52
2020/12/06 08:28:21;;;;;;;5.88;2.00;;;29.30;26.30;;;;;;4094377;28;20038;-42
2020/12/06 08:30:27;;;;;;;5.10;1.65;;;29.30;26.40;;;;;;4094276;28;20186;-56
2020/12/06 08:32:29;;;;;;;4.82;1.77;;;29.30;26.60;;;;;;4099607;28;20073;-54
2020/12/06 08:34:31;;;;;;;6.57;1.90;;;29.30;26.80;;;;;;4099301;28;20031;-50
2020/12/06 08:36:37;;;;;;;7.40;1.57;;;29.30;26.80;;;;;;4097833;28;20038;-50
2020/12/06 08:38:39;;;;;;;4.18;1.83;;;29.30;27.10;;;;;;4102226;28;20884;-48
2020/12/06 08:40:58;;;;;;;6.93;2.20;;;29.30;27.00;;;;;;4081749;28;20031;-47
2020/12/06 08:43:00;;;;;;;6.95;1.67;;;29.30;27.10;;;;;;4089735;28;20360;-48
2020/12/06 08:45:03;;;;;;;5.03;1.70;;;29.30;27.20;;;;;;4091899;28;20441;-47
2020/12/06 08:47:04;;;;;;;;;;;29.30;28.00;;;;;;4089574;28;20129;-55
2020/12/06 08:49:21;;;;;;;5.35;1.60;;;29.40;27.50;;;;;;4095399;28;19918;-54
2020/12/06 08:51:28;;;;;;;5.05;1.55;;;29.30;27.40;;;;;;4100472;28;20127;-48
2020/12/06 08:53:50;;;;;;;11.48;1.90;;;29.30;28.10;;;;;;4093992;28;20114;-47
2020/12/06 08:55:52;;;;;;;5.10;1.60;;;29.30;28.00;;;;;;4105277;28;20050;-48
2020/12/06 08:57:56;;;;;;;4.55;1.67;;;29.30;28.40;;;;;;4095863;28;20292;-55
2020/12/06 08:59:58;;;;;;;3.40;1.42;;;29.30;28.40;;;;;;4079533;28;20031;-52
2020/12/06 09:02:02;;;;;;;4.85;1.55;;;29.30;28.40;;;;;;4096136;28;20065;-49
2020/12/06 09:04:05;;;;;;;5.20;1.83;;;29.30;29.10;;;;;;4080629;28;20521;-53
2020/12/06 09:06:17;;;;;;;5.33;1.23;;;29.30;29.10;;;;;;4079956;28;20082;-49
2020/12/06 09:08:20;;;;;;;3.03;1.38;;;29.30;29.60;;;;;;4102056;28;20141;-44
2020/12/06 09:10:22;;;;;;;3.88;1.40;;;29.30;29.80;;;;;;4093131;28;20054;-45
2020/12/06 09:12:24;;;;;;;3.57;1.03;;;29.30;29.80;;;;;;4090481;28;20641;-51
2020/12/06 09:14:26;;;;;;;4.90;1.13;;;29.30;30.00;;;;;;4095166;28;20054;-47
2020/12/06 09:16:29;;;;;;;4.45;1.45;;;29.30;29.70;;;;;;4159424;23;20153;-61
2020/12/06 09:18:31;;;;;;;3.15;1.23;;;29.30;30.10;;;;;;4127891;28;20037;-58
2020/12/06 09:20:33;;;;;;;2.78;1.35;;;29.30;30.30;;;;;;4125519;28;20040;-54
2020/12/06 09:22:35;;;;;;;3.38;1.52;;;29.30;30.20;;;;;;4124821;28;20054;-58
2020/12/06 09:24:37;;;;;;;5.53;1.55;;;29.30;29.20;;;;;;4128310;28;20075;-55
2020/12/06 09:26:39;;;;;;;4.63;1.48;;;29.20;29.00;;;;;;4129396;28;20525;-56
2020/12/06 09:28:41;;;;;;;4.10;1.27;;;29.20;28.90;;;;;;4129528;28;20037;-57
2020/12/06 09:30:44;;;;;;;3.25;1.80;;;29.20;28.70;;;;;;4119238;28;20050;-62
2020/12/06 09:32:46;;;;;;;4.22;1.63;;;29.10;28.50;;;;;;4105818;28;20142;-59
2020/12/06 09:34:49;;;;;;;5.53;1.95;;;29.00;28.70;;;;;;4115534;28;20022;-56
2020/12/06 09:36:51;;;;;;;4.90;1.80;;;29.00;28.90;;;;;;4111204;28;20703;-55
2020/12/06 09:38:53;;;;;;;3.83;1.57;;;29.00;28.70;;;;;;4110673;28;20041;-58
2020/12/06 09:40:56;;;;;;;6.32;1.73;;;28.90;28.90;;;;;;4108226;28;20080;-57
2020/12/06 09:42:58;;;;;;;6.28;1.85;;;28.90;29.00;;;;;;4111036;28;20135;-59
2020/12/06 09:45:00;;;;;;;5.77;2.10;;;28.90;29.00;;;;;;4113011;28;20019;-58
2020/12/06 09:47:02;;;;;;;6.33;2.00;;;28.90;29.40;;;;;;4113658;28;20631;-58
2020/12/06 09:49:04;;;;;;;4.00;1.60;;;28.90;29.60;;;;;;4114187;28;20288;-60
2020/12/06 09:51:08;;;;;;;4.18;1.88;;;28.80;29.70;;;;;;4127360;28;20940;-61
2020/12/06 09:53:09;;;;;;;;;;;28.80;30.20;;;;;;4112094;28;20053;-60
2020/12/06 09:55:14;;;;;;;4.82;1.80;;;28.80;29.90;;;;;;4120469;28;19917;-60
2020/12/06 09:57:16;;;;;;;3.78;1.65;;;28.80;30.20;;;;;;4126900;28;20042;-63
2020/12/06 09:59:18;;;;;;;3.97;1.58;;;28.80;30.00;;;;;;4117514;28;20463;-54
2020/12/06 10:01:21;;;;;;;4.25;1.48;;;28.80;29.70;;;;;;4123102;28;20386;-54
2020/12/06 10:03:24;;;;;;;4.97;1.92;;;28.80;29.80;;;;;;4123899;28;20378;-52
2020/12/06 10:05:26;;;;;;;4.90;2.08;;;28.80;29.60;;;;;;4119152;28;20042;-53
2020/12/06 10:07:28;;;;;;;3.23;1.23;;;28.70;29.80;;;;;;4109757;28;20038;-54
2020/12/06 10:09:31;;;;;;;5.70;1.57;;;28.70;30.60;;;;;;4114866;28;20039;-58
2020/12/06 10:11:33;;;;;;;6.07;1.60;;;28.70;32.80;;;;;;4116900;28;20292;-58
2020/12/06 10:13:35;;;;;;;5.90;1.85;;;28.70;34.00;;;;;;4112319;28;20156;-58
2020/12/06 10:15:37;;;;;;;5.25;1.98;;;28.70;30.80;;;;;;4118763;28;20141;-58
2020/12/06 10:17:39;;;;;;;4.17;2.03;;;28.60;29.90;;;;;;4127138;28;20770;-59
2020/12/06 10:19:41;;;;;;;6.82;2.30;;;28.50;29.40;;;;;;4128219;28;20085;-58
2020/12/06 10:21:43;;;;;;;6.13;2.40;;;28.50;30.00;;;;;;4126138;28;20148;-55
2020/12/06 10:23:45;;;;;;;6.03;1.83;;;28.50;30.40;;;;;;4124714;28;20381;-59
2020/12/06 10:25:47;;;;;;;5.97;1.60;;;28.50;31.60;;;;;;4130819;28;20041;-59
2020/12/06 10:27:50;;;;;;;8.48;1.48;;;28.40;32.00;;;;;;4126398;28;20488;-60
2020/12/06 10:29:52;;;;;;;6.53;1.80;;;28.50;32.20;;;;;;4129749;28;20139;-59
2020/12/06 10:31:56;;;;;;;7.53;1.87;;;28.40;32.10;;;;;;4125860;28;20570;-59
2020/12/06 10:34:01;;;;;;;4.43;1.70;;;28.40;32.20;;;;;;4115440;28;20275;-60
2020/12/06 10:36:03;;;;;;;4.05;1.70;;;28.40;32.30;;;;;;4115434;28;20129;-63
2020/12/06 10:38:05;;;;;;;4.88;1.80;;;28.40;32.30;;;;;;4119590;28;20365;-55
2020/12/06 10:40:07;;;;;;;9.82;2.67;;;28.40;32.50;;;;;;4115713;28;20485;-59
2020/12/06 10:42:09;;;;;;;9.60;2.33;;;28.40;32.70;;;;;;4116638;28;20663;-58
2020/12/06 10:44:11;;;;;;;6.05;1.50;;;28.40;33.00;;;;;;4136371;28;20037;-58
2020/12/06 10:46:13;;;;;;;3.78;1.45;;;28.40;33.80;;;;;;4133846;28;20042;-61
2020/12/06 10:48:15;;;;;;;2.17;1.13;;;28.20;34.00;;;;;;4136677;28;20354;-63